Time;durP1;ratioP1;P1;durP2;ratioP2;P2;SDS_P1;SDS_P2;PMS_P1;PMS_P2;Temp;Humidity;BMP_temperature;BMP_pressure;BME280_temperature;BME280_humidity;BME280_pressure;Samples;Min_cycle;Max_cycle;Signal;HPM_P1;HPM_P2
2023/04/27 00:11:22;;;;;;;16.42;5.00;;;;;;;3.04;61.88;100393.44;30978956;28;96688;-64
2023/04/27 00:26:23;;;;;;;9.88;5.60;;;;;;;2.91;61.83;100382.19;30977549;28;96663;-65
2023/04/27 00:41:23;;;;;;;9.43;4.65;;;;;;;2.80;62.51;100385.63;30975959;28;96666;-64
2023/04/27 00:56:23;;;;;;;14.73;4.97;;;;;;;2.76;62.66;100399.94;30986983;28;103925;-66
2023/04/27 01:11:24;;;;;;;10.48;5.18;;;;;;;2.66;62.78;100390.09;30995567;28;103679;-62
2023/04/27 01:26:24;;;;;;;11.23;4.80;;;;;;;2.54;63.24;100391.03;30995160;28;97215;-66
2023/04/27 01:41:25;;;;;;;13.32;6.38;;;;;;;2.41;63.19;100398.16;30993060;28;97302;-68
2023/04/27 01:56:25;;;;;;;7.72;4.47;;;;;;;2.23;63.67;100398.53;30984880;28;103818;-63
2023/04/27 02:11:26;;;;;;;10.98;5.65;;;;;;;2.15;64.18;100406.13;30982972;28;97024;-65
2023/04/27 02:26:28;;;;;;;12.38;4.53;;;;;;;2.04;63.94;100409.53;30981503;28;97371;-63
2023/04/27 02:41:31;;;;;;;10.43;5.00;;;;;;;1.98;64.20;100418.69;30977226;28;97550;-66
2023/04/27 02:56:32;;;;;;;13.38;6.55;;;;;;;1.83;64.72;100419.78;30936433;28;1287036;-66
2023/04/27 03:11:32;;;;;;;10.10;4.93;;;;;;;1.81;65.00;100419.06;30981544;28;96971;-64
2023/04/27 03:26:32;;;;;;;11.60;5.25;;;;;;;1.82;64.73;100415.50;30981517;28;107219;-66
2023/04/27 03:41:33;;;;;;;10.68;5.13;;;;;;;1.89;65.20;100427.22;30978728;28;97181;-64
2023/04/27 03:56:33;;;;;;;13.55;4.97;;;;;;;2.13;64.87;100447.44;30975559;28;108606;-63
2023/04/27 04:11:33;;;;;;;13.13;4.90;;;;;;;2.50;65.01;100461.44;30889149;28;96675;-65
2023/04/27 04:26:34;;;;;;;10.40;3.90;;;;;;;3.19;64.74;100481.78;30868323;28;97187;-66
2023/04/27 04:41:35;;;;;;;13.57;3.95;;;;;;;3.71;63.74;100491.94;30967320;28;98563;-66
2023/04/27 04:56:36;;;;;;;6.60;3.35;;;;;;;4.13;62.98;100499.25;30972766;28;96644;-61
2023/04/27 05:11:36;;;;;;;10.13;3.92;;;;;;;4.62;62.01;100510.34;30971308;28;97555;-65
2023/04/27 05:26:37;;;;;;;8.43;3.47;;;;;;;4.97;60.67;100517.19;30964726;28;96822;-64
2023/04/27 05:41:37;;;;;;;9.82;3.78;;;;;;;5.51;59.78;100525.94;30869405;28;97876;-64
2023/04/27 05:56:37;;;;;;;6.90;3.85;;;;;;;6.43;59.01;100544.50;30864070;28;96724;-62
2023/04/27 06:11:38;;;;;;;9.55;3.67;;;;;;;7.51;56.42;100541.13;30862521;28;97052;-64
2023/04/27 06:26:38;;;;;;;7.68;4.00;;;;;;;8.53;54.67;100550.16;30863120;28;98817;-63
2023/04/27 06:41:38;;;;;;;8.75;4.28;;;;;;;9.02;53.36;100556.03;30861700;28;97377;-60
2023/04/27 06:56:39;;;;;;;6.43;3.33;;;;;;;9.92;50.97;100542.59;30858270;28;104074;-66
2023/04/27 07:11:39;;;;;;;7.95;4.30;;;;;;;10.91;49.99;100534.19;30857474;28;97818;-64
2023/04/27 07:26:40;;;;;;;6.97;3.20;;;;;;;12.69;47.52;100539.56;30856673;28;97151;-71
2023/04/27 07:41:40;;;;;;;7.95;2.70;;;;;;;13.46;43.82;100537.88;30853571;28;97230;-69
2023/04/27 07:56:41;;;;;;;3.05;1.70;;;;;;;14.67;40.59;100543.09;30852710;28;102006;-66
2023/04/27 08:11:42;;;;;;;6.90;2.63;;;;;;;16.35;37.02;100550.69;30855133;28;96781;-72
2023/04/27 08:26:42;;;;;;;6.47;2.03;;;;;;;17.63;33.25;100555.34;30853394;28;96653;-71
2023/04/27 08:41:43;;;;;;;4.85;2.13;;;;;;;18.52;31.56;100558.50;30849174;28;97397;-71
2023/04/27 08:56:43;;;;;;;6.75;3.05;;;;;;;18.84;30.10;100555.03;30849188;28;96912;-63
2023/04/27 09:11:44;;;;;;;6.40;3.13;;;;;;;19.37;29.87;100557.41;30854030;28;108848;-66
2023/04/27 09:26:49;;;;;;;5.35;2.33;;;;;;;18.19;28.36;100545.97;30867879;28;96784;-63
2023/04/27 09:41:49;;;;;;;7.83;2.50;;;;;;;16.11;30.46;100549.31;30892999;28;97336;-67
2023/04/27 09:57:16;;;;;;;5.47;2.10;;;;;;;15.56;31.67;100534.66;30986872;28;96815;-69
2023/04/27 10:12:26;;;;;;;3.73;2.03;;;;;;;14.88;31.41;100548.50;30952205;28;97098;-71
2023/04/27 10:27:26;;;;;;;7.20;3.10;;;;;;;13.93;33.35;100541.25;30961726;28;97345;-66
2023/04/27 10:42:27;;;;;;;8.82;4.32;;;;;;;12.99;35.15;100547.72;30984310;28;97306;-72
2023/04/27 10:57:28;;;;;;;7.93;4.03;;;;;;;16.20;31.27;100540.09;30982800;28;97066;-71
2023/04/27 11:12:30;;;;;;;10.00;3.40;;;;;;;15.10;31.29;100553.88;30968910;28;97058;-70
2023/04/27 11:27:39;;;;;;;7.67;3.57;;;;;;;14.79;30.93;100562.19;30980715;28;96822;-72
2023/04/27 11:42:42;;;;;;;5.93;3.73;;;;;;;13.80;33.50;100566.00;30976413;28;96797;-71
2023/04/27 11:57:42;;;;;;;6.83;3.03;;;;;;;15.05;31.15;100575.09;30976980;28;96888;-73
2023/04/27 12:12:43;;;;;;;11.68;3.88;;;;;;;16.65;30.67;100579.97;30975372;28;96610;-73
2023/04/27 12:27:46;;;;;;;5.90;3.60;;;;;;;17.89;28.97;100561.75;30973764;28;96686;-73
2023/04/27 12:42:46;;;;;;;7.30;3.30;;;;;;;18.66;26.83;100563.81;30972182;28;96853;-73
2023/04/27 12:57:46;;;;;;;8.13;3.33;;;;;;;17.74;26.37;100552.03;30991852;28;96706;-74
2023/04/27 13:12:47;;;;;;;8.75;3.30;;;;;;;15.30;26.45;100547.88;30994167;28;105846;-68
2023/04/27 13:27:47;;;;;;;7.85;3.20;;;;;;;16.98;26.07;100557.78;30993336;28;96748;-74
2023/04/27 13:42:47;;;;;;;3.80;2.55;;;;;;;16.16;25.59;100560.31;30990056;28;97370;-62
2023/04/27 13:57:48;;;;;;;10.75;3.08;;;;;;;16.42;30.13;100575.75;30989875;28;97075;-69
2023/04/27 14:12:48;;;;;;;6.95;3.00;;;;;;;16.44;31.26;100564.78;30988503;28;96757;-70
2023/04/27 14:27:48;;;;;;;5.97;3.60;;;;;;;16.20;31.97;100566.97;30981739;28;97108;-68
2023/04/27 14:42:49;;;;;;;6.95;3.15;;;;;;;16.22;31.06;100567.56;30977953;28;97161;-64
2023/04/27 14:57:50;;;;;;;7.63;3.67;;;;;;;15.66;30.88;100563.03;30963140;28;97229;-63
2023/04/27 15:12:50;;;;;;;5.65;2.83;;;;;;;14.91;31.09;100567.91;30976389;28;96841;-69
2023/04/27 15:27:50;;;;;;;8.13;3.60;;;;;;;13.67;31.99;100566.63;30975869;28;97316;-63
2023/04/27 15:42:51;;;;;;;7.38;3.25;;;;;;;13.94;32.76;100569.72;30896511;28;106627;-70
2023/04/27 15:57:52;;;;;;;7.40;3.30;;;;;;;13.53;33.50;100568.25;30889643;28;97275;-63
2023/04/27 16:12:52;;;;;;;6.43;3.20;;;;;;;13.34;34.35;100556.16;31010251;28;97567;-63
2023/04/27 16:27:52;;;;;;;7.78;3.53;;;;;;;13.18;34.58;100568.66;31081032;28;100513;-65
2023/04/27 16:42:53;;;;;;;9.02;3.30;;;;;;;12.90;34.87;100567.50;30905040;28;107009;-66
2023/04/27 16:57:53;;;;;;;6.10;3.08;;;;;;;12.49;34.94;100571.22;30849159;28;97618;-66
2023/04/27 17:12:54;;;;;;;6.47;3.55;;;;;;;11.81;35.72;100576.88;30849466;28;111419;-67
2023/04/27 17:27:54;;;;;;;6.53;3.10;;;;;;;11.32;36.95;100576.91;30848356;28;96723;-63
2023/04/27 17:42:56;;;;;;;9.80;3.50;;;;;;;10.75;37.83;100570.44;30863470;28;96776;-65
2023/04/27 17:57:57;;;;;;;6.43;3.07;;;;;;;9.98;38.67;100567.75;30865216;28;96687;-64
2023/04/27 18:12:57;;;;;;;9.10;4.20;;;;;;;9.18;39.70;100579.25;30864487;28;96649;-65
2023/04/27 18:27:57;;;;;;;9.73;3.35;;;;;;;8.60;41.42;100599.88;30864105;28;97366;-68
2023/04/27 18:42:58;;;;;;;6.30;4.03;;;;;;;8.22;43.13;100614.13;30862275;28;114227;-66
2023/04/27 18:57:58;;;;;;;13.73;4.75;;;;;;;7.82;44.78;100623.13;30948850;28;97472;-62
2023/04/27 19:12:58;;;;;;;12.55;5.25;;;;;;;7.58;46.46;100632.38;30983141;28;112061;-65
2023/04/27 19:27:59;;;;;;;12.82;6.85;;;;;;;7.29;47.95;100641.97;30982610;28;96804;-63
2023/04/27 19:42:59;;;;;;;14.52;6.72;;;;;;;7.27;48.80;100654.53;30978562;28;96922;-65
2023/04/27 19:57:59;;;;;;;16.17;9.32;;;;;;;7.25;48.76;100658.31;30978796;28;96931;-62
2023/04/27 20:13:00;;;;;;;15.15;8.20;;;;;;;7.08;49.41;100659.78;30978665;28;101572;-63
2023/04/27 20:28:00;;;;;;;17.75;9.45;;;;;;;6.59;51.01;100659.66;30978020;28;96662;-64
2023/04/27 20:43:01;;;;;;;20.17;9.63;;;;;;;6.40;51.62;100668.34;30968713;28;97336;-63
2023/04/27 20:58:01;;;;;;;15.77;9.60;;;;;;;6.32;53.00;100662.88;30972575;28;97166;-63
2023/04/27 21:13:02;;;;;;;31.85;11.45;;;;;;;6.09;53.39;100642.66;30983136;28;97644;-64
2023/04/27 21:28:03;;;;;;;25.77;12.30;;;;;;;5.73;54.49;100636.84;30991879;28;96801;-64
2023/04/27 21:43:04;;;;;;;26.63;11.55;;;;;;;5.46;55.61;100649.69;30991267;28;97061;-62
2023/04/27 21:58:05;;;;;;;29.35;13.25;;;;;;;5.29;55.96;100657.19;30991896;28;96722;-63
2023/04/27 22:13:05;;;;;;;37.22;15.38;;;;;;;5.05;56.62;100657.38;30990738;28;96713;-64
2023/04/27 22:28:05;;;;;;;35.33;18.25;;;;;;;4.95;57.07;100661.69;30989736;28;108511;-63
2023/04/27 22:43:06;;;;;;;32.65;16.65;;;;;;;5.17;57.96;100656.38;30987021;28;108444;-62
2023/04/27 22:58:06;;;;;;;35.58;17.25;;;;;;;5.37;58.07;100652.13;30985587;28;96984;-62
2023/04/27 23:13:10;;;;;;;30.75;17.70;;;;;;;5.53;57.97;100641.13;30985320;28;99719;-61
2023/04/27 23:28:10;;;;;;;35.97;20.53;;;;;;;5.48;57.84;100622.19;30982885;28;97171;-61
2023/04/27 23:43:10;;;;;;;35.85;18.65;;;;;;;5.44;58.19;100628.69;30981851;28;96919;-61
2023/04/27 23:58:11;;;;;;;33.22;19.75;;;;;;;5.47;58.35;100628.44;30980327;28;100912;-61
